sensor_id;sensor_type;location;lat;lon;timestamp;pressure;altitude;pressure_sealevel;temperature;humidity
23164;BME280;31429;42.674;23.350;2024-02-23T00:00:58;94531.00;;;6.00;100.00
23164;BME280;31429;42.674;23.350;2024-02-23T00:01:59;94519.25;;;5.96;100.00
23164;BME280;31429;42.674;23.350;2024-02-23T00:02:59;94533.59;;;5.99;100.00
23164;BME280;31429;42.674;23.350;2024-02-23T00:04:00;94539.25;;;6.08;100.00
23164;BME280;31429;42.674;23.350;2024-02-23T00:05:03;94536.28;;;6.59;100.00
23164;BME280;31429;42.674;23.350;2024-02-23T00:06:05;94527.25;;;6.49;100.00
23164;BME280;31429;42.674;23.350;2024-02-23T00:07:06;94517.41;;;6.36;100.00
23164;BME280;31429;42.674;23.350;2024-02-23T00:08:07;94524.03;;;6.42;100.00
23164;BME280;31429;42.674;23.350;2024-02-23T00:09:09;94525.81;;;6.38;100.00
23164;BME280;31429;42.674;23.350;2024-02-23T00:10:10;94525.13;;;6.64;100.00
23164;BME280;31429;42.674;23.350;2024-02-23T00:11:11;94527.50;;;6.72;100.00
23164;BME280;31429;42.674;23.350;2024-02-23T00:12:12;94525.91;;;6.35;100.00
23164;BME280;31429;42.674;23.350;2024-02-23T00:13:14;94528.06;;;6.17;100.00
23164;BME280;31429;42.674;23.350;2024-02-23T00:14:15;94520.28;;;6.23;100.00
23164;BME280;31429;42.674;23.350;2024-02-23T00:15:17;94528.19;;;6.11;100.00
23164;BME280;31429;42.674;23.350;2024-02-23T00:16:18;94523.75;;;6.20;100.00
23164;BME280;31429;42.674;23.350;2024-02-23T00:17:20;94528.78;;;6.54;100.00
23164;BME280;31429;42.674;23.350;2024-02-23T00:18:20;94523.78;;;6.53;100.00
23164;BME280;31429;42.674;23.350;2024-02-23T00:19:21;94513.00;;;6.75;100.00
23164;BME280;31429;42.674;23.350;2024-02-23T00:20:23;94528.84;;;6.53;100.00
23164;BME280;31429;42.674;23.350;2024-02-23T00:21:25;94528.25;;;6.43;100.00
23164;BME280;31429;42.674;23.350;2024-02-23T00:22:25;94536.38;;;6.22;100.00
23164;BME280;31429;42.674;23.350;2024-02-23T00:23:26;94533.91;;;6.20;100.00
23164;BME280;31429;42.674;23.350;2024-02-23T00:24:29;94533.97;;;6.82;100.00
23164;BME280;31429;42.674;23.350;2024-02-23T00:25:29;94537.09;;;6.91;100.00
23164;BME280;31429;42.674;23.350;2024-02-23T00:26:30;94538.50;;;6.71;100.00
23164;BME280;31429;42.674;23.350;2024-02-23T00:27:31;94542.84;;;6.35;100.00
23164;BME280;31429;42.674;23.350;2024-02-23T00:28:32;94540.50;;;5.92;100.00
23164;BME280;31429;42.674;23.350;2024-02-23T00:29:32;94525.44;;;5.85;100.00
23164;BME280;31429;42.674;23.350;2024-02-23T00:30:33;94515.38;;;5.82;100.00
23164;BME280;31429;42.674;23.350;2024-02-23T00:31:34;94512.59;;;5.92;100.00
23164;BME280;31429;42.674;23.350;2024-02-23T00:32:35;94511.75;;;5.92;100.00
23164;BME280;31429;42.674;23.350;2024-02-23T00:33:35;94511.75;;;5.92;100.00
23164;BME280;31429;42.674;23.350;2024-02-23T00:34:38;94510.63;;;6.03;100.00
23164;BME280;31429;42.674;23.350;2024-02-23T00:35:39;94508.09;;;6.03;100.00
23164;BME280;31429;42.674;23.350;2024-02-23T00:36:42;94516.88;;;5.90;100.00
23164;BME280;31429;42.674;23.350;2024-02-23T00:37:43;94514.75;;;5.70;100.00
23164;BME280;31429;42.674;23.350;2024-02-23T00:38:43;94511.94;;;5.82;100.00
23164;BME280;31429;42.674;23.350;2024-02-23T00:39:44;94504.09;;;5.93;100.00
23164;BME280;31429;42.674;23.350;2024-02-23T00:40:45;94508.88;;;6.05;100.00
23164;BME280;31429;42.674;23.350;2024-02-23T00:41:46;94516.00;;;6.25;100.00
23164;BME280;31429;42.674;23.350;2024-02-23T00:42:46;94515.94;;;6.28;100.00
23164;BME280;31429;42.674;23.350;2024-02-23T00:43:47;94510.34;;;6.15;100.00
23164;BME280;31429;42.674;23.350;2024-02-23T00:44:48;94511.34;;;6.10;100.00
23164;BME280;31429;42.674;23.350;2024-02-23T00:45:49;94517.06;;;6.16;100.00
23164;BME280;31429;42.674;23.350;2024-02-23T00:46:49;94516.13;;;6.20;100.00
23164;BME280;31429;42.674;23.350;2024-02-23T00:47:50;94512.53;;;6.29;100.00
23164;BME280;31429;42.674;23.350;2024-02-23T00:48:51;94500.28;;;6.12;100.00
23164;BME280;31429;42.674;23.350;2024-02-23T00:49:52;94498.06;;;5.99;100.00
23164;BME280;31429;42.674;23.350;2024-02-23T00:50:53;94492.31;;;5.92;100.00
23164;BME280;31429;42.674;23.350;2024-02-23T00:51:55;94492.31;;;5.91;100.00
23164;BME280;31429;42.674;23.350;2024-02-23T00:52:56;94490.34;;;6.03;100.00
23164;BME280;31429;42.674;23.350;2024-02-23T00:53:57;94486.31;;;5.95;100.00
23164;BME280;31429;42.674;23.350;2024-02-23T00:54:57;94490.81;;;5.82;100.00
23164;BME280;31429;42.674;23.350;2024-02-23T00:55:58;94496.78;;;5.81;100.00
23164;BME280;31429;42.674;23.350;2024-02-23T00:56:59;94482.53;;;5.75;100.00
23164;BME280;31429;42.674;23.350;2024-02-23T00:58:00;94480.91;;;5.73;100.00
23164;BME280;31429;42.674;23.350;2024-02-23T00:59:01;94487.69;;;5.72;100.00
23164;BME280;31429;42.674;23.350;2024-02-23T01:00:02;94484.34;;;6.07;100.00
23164;BME280;31429;42.674;23.350;2024-02-23T01:01:23;94498.88;;;6.33;100.00
23164;BME280;31429;42.674;23.350;2024-02-23T01:02:24;94497.13;;;6.03;100.00
23164;BME280;31429;42.674;23.350;2024-02-23T01:03:25;94493.66;;;5.70;100.00
23164;BME280;31429;42.674;23.350;2024-02-23T01:04:25;94494.56;;;5.67;100.00
23164;BME280;31429;42.674;23.350;2024-02-23T01:05:26;94489.38;;;5.72;100.00
23164;BME280;31429;42.674;23.350;2024-02-23T01:06:27;94494.31;;;5.76;100.00
23164;BME280;31429;42.674;23.350;2024-02-23T01:07:30;94485.97;;;5.73;100.00
23164;BME280;31429;42.674;23.350;2024-02-23T01:08:31;94488.53;;;5.71;100.00
23164;BME280;31429;42.674;23.350;2024-02-23T01:09:32;94485.78;;;5.80;100.00
23164;BME280;31429;42.674;23.350;2024-02-23T01:10:32;94484.09;;;5.81;100.00
23164;BME280;31429;42.674;23.350;2024-02-23T01:11:33;94482.88;;;5.97;100.00
23164;BME280;31429;42.674;23.350;2024-02-23T01:12:34;94491.50;;;6.24;100.00
23164;BME280;31429;42.674;23.350;2024-02-23T01:13:34;94488.41;;;6.13;100.00
23164;BME280;31429;42.674;23.350;2024-02-23T01:14:36;94474.78;;;5.82;100.00
23164;BME280;31429;42.674;23.350;2024-02-23T01:15:37;94480.16;;;5.68;100.00
23164;BME280;31429;42.674;23.350;2024-02-23T01:16:38;94488.72;;;5.64;100.00
23164;BME280;31429;42.674;23.350;2024-02-23T01:17:38;94485.41;;;5.62;100.00
23164;BME280;31429;42.674;23.350;2024-02-23T01:18:39;94479.38;;;5.66;100.00
23164;BME280;31429;42.674;23.350;2024-02-23T01:19:40;94477.88;;;5.59;100.00
23164;BME280;31429;42.674;23.350;2024-02-23T01:20:41;94471.31;;;5.86;100.00
23164;BME280;31429;42.674;23.350;2024-02-23T01:21:42;94482.84;;;5.99;100.00
23164;BME280;31429;42.674;23.350;2024-02-23T01:22:44;94476.63;;;5.75;100.00
23164;BME280;31429;42.674;23.350;2024-02-23T01:23:45;94476.13;;;5.61;100.00
23164;BME280;31429;42.674;23.350;2024-02-23T01:24:46;94478.94;;;5.49;100.00
23164;BME280;31429;42.674;23.350;2024-02-23T01:25:47;94479.75;;;5.49;100.00
23164;BME280;31429;42.674;23.350;2024-02-23T01:26:47;94473.78;;;5.53;100.00
23164;BME280;31429;42.674;23.350;2024-02-23T01:27:48;94471.25;;;5.52;100.00
23164;BME280;31429;42.674;23.350;2024-02-23T01:28:49;94474.34;;;5.64;100.00
23164;BME280;31429;42.674;23.350;2024-02-23T01:29:50;94459.00;;;5.69;100.00
23164;BME280;31429;42.674;23.350;2024-02-23T01:30:51;94459.81;;;5.71;100.00
23164;BME280;31429;42.674;23.350;2024-02-23T01:31:51;94456.28;;;5.76;100.00
23164;BME280;31429;42.674;23.350;2024-02-23T01:32:54;94464.28;;;5.97;100.00
23164;BME280;31429;42.674;23.350;2024-02-23T01:33:55;94460.25;;;5.88;100.00
23164;BME280;31429;42.674;23.350;2024-02-23T01:34:56;94468.97;;;5.76;100.00
23164;BME280;31429;42.674;23.350;2024-02-23T01:35:56;94473.03;;;5.85;100.00
23164;BME280;31429;42.674;23.350;2024-02-23T01:36:58;94474.63;;;5.89;100.00
23164;BME280;31429;42.674;23.350;2024-02-23T01:38:01;94473.59;;;5.96;100.00
23164;BME280;31429;42.674;23.350;2024-02-23T01:39:01;94462.72;;;5.93;100.00
23164;BME280;31429;42.674;23.350;2024-02-23T01:40:03;94457.06;;;5.80;100.00
23164;BME280;31429;42.674;23.350;2024-02-23T01:41:04;94463.19;;;5.71;100.00
23164;BME280;31429;42.674;23.350;2024-02-23T01:42:05;94456.53;;;5.67;100.00
23164;BME280;31429;42.674;23.350;2024-02-23T01:43:06;94454.72;;;5.72;100.00
23164;BME280;31429;42.674;23.350;2024-02-23T01:44:06;94458.91;;;5.73;100.00
23164;BME280;31429;42.674;23.350;2024-02-23T01:45:08;94451.13;;;5.81;100.00
23164;BME280;31429;42.674;23.350;2024-02-23T01:46:09;94450.28;;;5.80;100.00
23164;BME280;31429;42.674;23.350;2024-02-23T01:47:10;94446.16;;;5.76;100.00
23164;BME280;31429;42.674;23.350;2024-02-23T01:48:11;94451.97;;;5.82;100.00
23164;BME280;31429;42.674;23.350;2024-02-23T01:49:12;94449.28;;;5.88;100.00
23164;BME280;31429;42.674;23.350;2024-02-23T01:50:13;94449.13;;;5.94;100.00
23164;BME280;31429;42.674;23.350;2024-02-23T01:51:14;94454.19;;;5.94;100.00
23164;BME280;31429;42.674;23.350;2024-02-23T01:52:15;94452.31;;;6.02;100.00
23164;BME280;31429;42.674;23.350;2024-02-23T01:53:18;94458.97;;;6.06;100.00
23164;BME280;31429;42.674;23.350;2024-02-23T01:54:20;94454.94;;;5.99;100.00
23164;BME280;31429;42.674;23.350;2024-02-23T01:55:21;94454.13;;;5.97;100.00
23164;BME280;31429;42.674;23.350;2024-02-23T01:56:23;94461.84;;;6.26;100.00
23164;BME280;31429;42.674;23.350;2024-02-23T01:57:24;94453.69;;;6.76;100.00
23164;BME280;31429;42.674;23.350;2024-02-23T01:58:25;94453.13;;;6.67;100.00
23164;BME280;31429;42.674;23.350;2024-02-23T01:59:27;94451.75;;;6.23;100.00
23164;BME280;31429;42.674;23.350;2024-02-23T02:00:29;94451.50;;;6.00;100.00
23164;BME280;31429;42.674;23.350;2024-02-23T02:01:30;94447.44;;;5.94;100.00
23164;BME280;31429;42.674;23.350;2024-02-23T02:02:31;94446.66;;;5.91;100.00
23164;BME280;31429;42.674;23.350;2024-02-23T02:03:33;94447.69;;;5.84;100.00
23164;BME280;31429;42.674;23.350;2024-02-23T02:04:34;94444.28;;;5.85;100.00
23164;BME280;31429;42.674;23.350;2024-02-23T02:05:35;94443.03;;;6.01;100.00
23164;BME280;31429;42.674;23.350;2024-02-23T02:06:36;94445.84;;;6.22;100.00
23164;BME280;31429;42.674;23.350;2024-02-23T02:07:37;94439.84;;;6.26;100.00
23164;BME280;31429;42.674;23.350;2024-02-23T02:08:40;94436.69;;;6.17;100.00
23164;BME280;31429;42.674;23.350;2024-02-23T02:09:41;94440.03;;;5.87;100.00
23164;BME280;31429;42.674;23.350;2024-02-23T02:10:42;94436.53;;;5.91;100.00
23164;BME280;31429;42.674;23.350;2024-02-23T02:11:46;94437.94;;;5.67;100.00
23164;BME280;31429;42.674;23.350;2024-02-23T02:12:47;94441.19;;;5.37;100.00
23164;BME280;31429;42.674;23.350;2024-02-23T02:13:48;94439.63;;;5.31;100.00
23164;BME280;31429;42.674;23.350;2024-02-23T02:14:49;94444.63;;;5.34;100.00
23164;BME280;31429;42.674;23.350;2024-02-23T02:15:49;94437.78;;;5.38;100.00
23164;BME280;31429;42.674;23.350;2024-02-23T02:16:50;94432.47;;;5.48;100.00
23164;BME280;31429;42.674;23.350;2024-02-23T02:17:51;94436.47;;;5.58;100.00
23164;BME280;31429;42.674;23.350;2024-02-23T02:18:52;94429.94;;;5.48;100.00
23164;BME280;31429;42.674;23.350;2024-02-23T02:19:53;94429.91;;;5.50;100.00
23164;BME280;31429;42.674;23.350;2024-02-23T02:20:55;94428.13;;;5.53;100.00
23164;BME280;31429;42.674;23.350;2024-02-23T02:21:57;94428.94;;;5.55;100.00
23164;BME280;31429;42.674;23.350;2024-02-23T02:22:58;94428.00;;;5.58;100.00
23164;BME280;31429;42.674;23.350;2024-02-23T02:24:00;94433.94;;;5.58;100.00
23164;BME280;31429;42.674;23.350;2024-02-23T02:25:01;94432.03;;;5.66;100.00
23164;BME280;31429;42.674;23.350;2024-02-23T02:26:02;94431.06;;;5.72;100.00
23164;BME280;31429;42.674;23.350;2024-02-23T02:27:03;94429.22;;;5.78;100.00
23164;BME280;31429;42.674;23.350;2024-02-23T02:28:06;94428.50;;;5.72;100.00
23164;BME280;31429;42.674;23.350;2024-02-23T02:29:09;94433.28;;;5.84;100.00
23164;BME280;31429;42.674;23.350;2024-02-23T02:30:10;94436.00;;;5.76;100.00
23164;BME280;31429;42.674;23.350;2024-02-23T02:31:11;94434.03;;;5.89;100.00
23164;BME280;31429;42.674;23.350;2024-02-23T02:32:12;94439.75;;;5.62;100.00
23164;BME280;31429;42.674;23.350;2024-02-23T02:33:12;94439.72;;;5.63;100.00
23164;BME280;31429;42.674;23.350;2024-02-23T02:34:13;94436.25;;;5.67;100.00
23164;BME280;31429;42.674;23.350;2024-02-23T02:35:15;94441.16;;;5.73;100.00
23164;BME280;31429;42.674;23.350;2024-02-23T02:36:16;94441.06;;;5.78;100.00
23164;BME280;31429;42.674;23.350;2024-02-23T02:37:16;94433.31;;;5.82;100.00
23164;BME280;31429;42.674;23.350;2024-02-23T02:38:17;94429.91;;;5.85;100.00
23164;BME280;31429;42.674;23.350;2024-02-23T02:39:20;94435.72;;;5.89;100.00
23164;BME280;31429;42.674;23.350;2024-02-23T02:40:21;94435.81;;;5.86;100.00
23164;BME280;31429;42.674;23.350;2024-02-23T02:41:23;94433.47;;;5.76;100.00
23164;BME280;31429;42.674;23.350;2024-02-23T02:42:25;94432.81;;;5.68;100.00
23164;BME280;31429;42.674;23.350;2024-02-23T02:43:26;94438.13;;;5.95;100.00
23164;BME280;31429;42.674;23.350;2024-02-23T02:44:27;94442.44;;;5.91;100.00
23164;BME280;31429;42.674;23.350;2024-02-23T02:45:31;94430.19;;;5.73;100.00
23164;BME280;31429;42.674;23.350;2024-02-23T02:46:31;94445.97;;;5.49;100.00
23164;BME280;31429;42.674;23.350;2024-02-23T02:47:32;94444.75;;;5.30;100.00
23164;BME280;31429;42.674;23.350;2024-02-23T02:48:33;94445.41;;;5.38;100.00
23164;BME280;31429;42.674;23.350;2024-02-23T02:49:34;94458.59;;;5.52;100.00
23164;BME280;31429;42.674;23.350;2024-02-23T02:50:35;94455.00;;;5.60;100.00
23164;BME280;31429;42.674;23.350;2024-02-23T02:51:36;94449.00;;;5.64;100.00
23164;BME280;31429;42.674;23.350;2024-02-23T02:52:36;94437.19;;;5.63;100.00
23164;BME280;31429;42.674;23.350;2024-02-23T02:53:37;94441.38;;;5.64;100.00
23164;BME280;31429;42.674;23.350;2024-02-23T02:54:39;94432.94;;;5.64;100.00
23164;BME280;31429;42.674;23.350;2024-02-23T02:55:41;94444.09;;;5.57;100.00
23164;BME280;31429;42.674;23.350;2024-02-23T02:56:42;94437.97;;;5.65;100.00
23164;BME280;31429;42.674;23.350;2024-02-23T02:57:44;94440.34;;;5.73;100.00
23164;BME280;31429;42.674;23.350;2024-02-23T02:58:45;94443.03;;;5.65;100.00
23164;BME280;31429;42.674;23.350;2024-02-23T02:59:46;94449.94;;;5.60;100.00
23164;BME280;31429;42.674;23.350;2024-02-23T03:00:46;94444.97;;;5.56;100.00
23164;BME280;31429;42.674;23.350;2024-02-23T03:01:47;94445.84;;;5.55;100.00
23164;BME280;31429;42.674;23.350;2024-02-23T03:02:48;94436.09;;;5.38;100.00
23164;BME280;31429;42.674;23.350;2024-02-23T03:03:49;94442.38;;;5.59;100.00
23164;BME280;31429;42.674;23.350;2024-02-23T03:04:50;94438.28;;;5.52;100.00
23164;BME280;31429;42.674;23.350;2024-02-23T03:05:51;94439.44;;;5.74;100.00
23164;BME280;31429;42.674;23.350;2024-02-23T03:06:52;94440.00;;;5.51;100.00
23164;BME280;31429;42.674;23.350;2024-02-23T03:07:52;94444.47;;;5.42;100.00
23164;BME280;31429;42.674;23.350;2024-02-23T03:08:53;94445.19;;;5.45;100.00
23164;BME280;31429;42.674;23.350;2024-02-23T03:09:55;94441.53;;;5.58;100.00
23164;BME280;31429;42.674;23.350;2024-02-23T03:10:56;94433.94;;;5.58;100.00
23164;BME280;31429;42.674;23.350;2024-02-23T03:11:57;94445.84;;;5.55;100.00
23164;BME280;31429;42.674;23.350;2024-02-23T03:12:58;94449.00;;;5.63;100.00
23164;BME280;31429;42.674;23.350;2024-02-23T03:13:59;94450.94;;;5.90;100.00
23164;BME280;31429;42.674;23.350;2024-02-23T03:14:59;94443.69;;;5.73;100.00
23164;BME280;31429;42.674;23.350;2024-02-23T03:16:00;94433.72;;;5.66;100.00
23164;BME280;31429;42.674;23.350;2024-02-23T03:17:01;94437.09;;;5.66;100.00
23164;BME280;31429;42.674;23.350;2024-02-23T03:18:02;94429.94;;;5.48;100.00
23164;BME280;31429;42.674;23.350;2024-02-23T03:19:02;94435.38;;;5.33;100.00
23164;BME280;31429;42.674;23.350;2024-02-23T03:20:04;94433.56;;;5.37;100.00
23164;BME280;31429;42.674;23.350;2024-02-23T03:21:11;94434.31;;;5.42;100.00
23164;BME280;31429;42.674;23.350;2024-02-23T03:22:13;94436.84;;;5.77;100.00
23164;BME280;31429;42.674;23.350;2024-02-23T03:23:14;94441.88;;;5.43;100.00
23164;BME280;31429;42.674;23.350;2024-02-23T03:24:15;94443.75;;;5.35;100.00
23164;BME280;31429;42.674;23.350;2024-02-23T03:25:17;94459.22;;;5.25;100.00
23164;BME280;31429;42.674;23.350;2024-02-23T03:26:18;94450.66;;;5.29;100.00
23164;BME280;31429;42.674;23.350;2024-02-23T03:27:19;94447.66;;;5.48;100.00
23164;BME280;31429;42.674;23.350;2024-02-23T03:28:20;94445.97;;;5.49;100.00
23164;BME280;31429;42.674;23.350;2024-02-23T03:29:21;94448.31;;;5.56;100.00
23164;BME280;31429;42.674;23.350;2024-02-23T03:30:25;94447.19;;;5.68;100.00
23164;BME280;31429;42.674;23.350;2024-02-23T03:31:26;94450.06;;;5.54;100.00
23164;BME280;31429;42.674;23.350;2024-02-23T03:32:27;94440.00;;;5.51;100.00
23164;BME280;31429;42.674;23.350;2024-02-23T03:33:27;94443.44;;;5.49;100.00
23164;BME280;31429;42.674;23.350;2024-02-23T03:34:28;94449.22;;;5.54;100.00
23164;BME280;31429;42.674;23.350;2024-02-23T03:35:29;94439.78;;;5.60;100.00
23164;BME280;31429;42.674;23.350;2024-02-23T03:36:29;94447.00;;;6.11;100.00
23164;BME280;31429;42.674;23.350;2024-02-23T03:37:30;94450.09;;;6.22;100.00
23164;BME280;31429;42.674;23.350;2024-02-23T03:38:31;94442.81;;;5.76;100.00
23164;BME280;31429;42.674;23.350;2024-02-23T03:39:52;94439.28;;;5.82;100.00
23164;BME280;31429;42.674;23.350;2024-02-23T03:40:54;94436.41;;;5.60;100.00
23164;BME280;31429;42.674;23.350;2024-02-23T03:41:55;94441.03;;;5.43;100.00
23164;BME280;31429;42.674;23.350;2024-02-23T03:42:55;94436.41;;;5.25;100.00
23164;BME280;31429;42.674;23.350;2024-02-23T03:43:56;94434.53;;;5.33;100.00
23164;BME280;31429;42.674;23.350;2024-02-23T03:44:57;94438.50;;;5.44;100.00
23164;BME280;31429;42.674;23.350;2024-02-23T03:45:58;94447.44;;;5.22;100.00
23164;BME280;31429;42.674;23.350;2024-02-23T03:46:59;94434.75;;;5.23;100.00
23164;BME280;31429;42.674;23.350;2024-02-23T03:48:00;94438.19;;;5.21;100.00
23164;BME280;31429;42.674;23.350;2024-02-23T03:49:21;94425.31;;;5.29;100.00
23164;BME280;31429;42.674;23.350;2024-02-23T03:50:22;94431.16;;;5.32;100.00
23164;BME280;31429;42.674;23.350;2024-02-23T03:51:22;94424.47;;;5.28;100.00
23164;BME280;31429;42.674;23.350;2024-02-23T03:52:23;94428.34;;;5.44;100.00
23164;BME280;31429;42.674;23.350;2024-02-23T03:53:24;94443.09;;;5.64;100.00
23164;BME280;31429;42.674;23.350;2024-02-23T03:54:24;94455.00;;;5.60;100.00
23164;BME280;31429;42.674;23.350;2024-02-23T03:55:25;94442.03;;;5.37;100.00
23164;BME280;31429;42.674;23.350;2024-02-23T03:56:27;94448.00;;;5.35;100.00
23164;BME280;31429;42.674;23.350;2024-02-23T03:57:28;94443.94;;;5.28;100.00
23164;BME280;31429;42.674;23.350;2024-02-23T03:58:29;94444.66;;;5.33;100.00
23164;BME280;31429;42.674;23.350;2024-02-23T03:59:30;94442.38;;;5.22;100.00
23164;BME280;31429;42.674;23.350;2024-02-23T04:00:30;94439.75;;;5.25;100.00
23164;BME280;31429;42.674;23.350;2024-02-23T04:01:31;94439.81;;;5.23;100.00
23164;BME280;31429;42.674;23.350;2024-02-23T04:02:32;94445.13;;;5.48;100.00
23164;BME280;31429;42.674;23.350;2024-02-23T04:03:33;94452.00;;;5.45;100.00
23164;BME280;31429;42.674;23.350;2024-02-23T04:04:33;94439.41;;;5.40;100.00
23164;BME280;31429;42.674;23.350;2024-02-23T04:05:34;94436.81;;;5.43;100.00
23164;BME280;31429;42.674;23.350;2024-02-23T04:06:35;94433.56;;;5.37;100.00
23164;BME280;31429;42.674;23.350;2024-02-23T04:07:36;94438.41;;;5.47;100.00
23164;BME280;31429;42.674;23.350;2024-02-23T04:08:36;94440.03;;;5.50;100.00
23164;BME280;31429;42.674;23.350;2024-02-23T04:09:37;94442.97;;;5.33;100.00
23164;BME280;31429;42.674;23.350;2024-02-23T04:10:38;94442.38;;;5.22;100.00
23164;BME280;31429;42.674;23.350;2024-02-23T04:11:40;94440.59;;;5.26;100.00
23164;BME280;31429;42.674;23.350;2024-02-23T04:12:41;94441.47;;;5.25;100.00
23164;BME280;31429;42.674;23.350;2024-02-23T04:13:41;94439.66;;;5.30;100.00
23164;BME280;31429;42.674;23.350;2024-02-23T04:14:42;94457.28;;;5.36;100.00
23164;BME280;31429;42.674;23.350;2024-02-23T04:15:43;94443.66;;;5.40;100.00
23164;BME280;31429;42.674;23.350;2024-02-23T04:16:44;94444.00;;;5.61;100.00
23164;BME280;31429;42.674;23.350;2024-02-23T04:17:45;94447.22;;;5.31;100.00
23164;BME280;31429;42.674;23.350;2024-02-23T04:18:46;94446.75;;;5.14;100.00
23164;BME280;31429;42.674;23.350;2024-02-23T04:19:47;94444.47;;;5.40;100.00
23164;BME280;31429;42.674;23.350;2024-02-23T04:20:47;94441.75;;;5.49;100.00
23164;BME280;31429;42.674;23.350;2024-02-23T04:21:48;94443.69;;;5.38;100.00
23164;BME280;31429;42.674;23.350;2024-02-23T04:22:49;94438.16;;;5.58;100.00
23164;BME280;31429;42.674;23.350;2024-02-23T04:23:50;94446.81;;;5.49;100.00
23164;BME280;31429;42.674;23.350;2024-02-23T04:24:50;94443.66;;;5.40;100.00
23164;BME280;31429;42.674;23.350;2024-02-23T04:25:51;94448.44;;;5.52;100.00
23164;BME280;31429;42.674;23.350;2024-02-23T04:26:53;94454.41;;;5.49;100.00
23164;BME280;31429;42.674;23.350;2024-02-23T04:27:54;94450.06;;;5.54;100.00
23164;BME280;31429;42.674;23.350;2024-02-23T04:28:55;94447.47;;;5.57;100.00
23164;BME280;31429;42.674;23.350;2024-02-23T04:29:56;94453.50;;;5.53;100.00
23164;BME280;31429;42.674;23.350;2024-02-23T04:30:56;94446.69;;;5.54;100.00
23164;BME280;31429;42.674;23.350;2024-02-23T04:31:57;94447.47;;;5.57;100.00
23164;BME280;31429;42.674;23.350;2024-02-23T04:32:58;94444.09;;;5.57;100.00
23164;BME280;31429;42.674;23.350;2024-02-23T04:33:59;94434.16;;;5.48;100.00
23164;BME280;31429;42.674;23.350;2024-02-23T04:34:59;94437.50;;;5.50;100.00
23164;BME280;31429;42.674;23.350;2024-02-23T04:36:00;94442.53;;;5.51;100.00
23164;BME280;31429;42.674;23.350;2024-02-23T04:37:01;94436.63;;;5.51;100.00
23164;BME280;31429;42.674;23.350;2024-02-23T04:38:02;94439.06;;;5.55;100.00
23164;BME280;31429;42.674;23.350;2024-02-23T04:39:02;94436.88;;;5.75;100.00
23164;BME280;31429;42.674;23.350;2024-02-23T04:40:05;94447.03;;;5.75;100.00
23164;BME280;31429;42.674;23.350;2024-02-23T04:41:07;94442.81;;;5.74;100.00
23164;BME280;31429;42.674;23.350;2024-02-23T04:42:09;94454.50;;;5.80;100.00
23164;BME280;31429;42.674;23.350;2024-02-23T04:43:10;94458.25;;;5.65;100.00
23164;BME280;31429;42.674;23.350;2024-02-23T04:44:11;94460.00;;;5.63;100.00
23164;BME280;31429;42.674;23.350;2024-02-23T04:45:11;94457.66;;;5.54;100.00
23164;BME280;31429;42.674;23.350;2024-02-23T04:46:12;94446.81;;;5.49;100.00
23164;BME280;31429;42.674;23.350;2024-02-23T04:47:13;94447.84;;;5.41;100.00
23164;BME280;31429;42.674;23.350;2024-02-23T04:48:14;94451.31;;;5.38;100.00
23164;BME280;31429;42.674;23.350;2024-02-23T04:49:15;94452.09;;;5.40;100.00
23164;BME280;31429;42.674;23.350;2024-02-23T04:50:16;94461.56;;;5.32;100.00
23164;BME280;31429;42.674;23.350;2024-02-23T04:51:16;94463.44;;;5.24;100.00
23164;BME280;31429;42.674;23.350;2024-02-23T04:52:17;94458.13;;;5.35;100.00
23164;BME280;31429;42.674;23.350;2024-02-23T04:53:18;94460.66;;;5.36;100.00
23164;BME280;31429;42.674;23.350;2024-02-23T04:54:19;94459.75;;;5.37;100.00
23164;BME280;31429;42.674;23.350;2024-02-23T04:55:20;94452.28;;;5.31;100.00
23164;BME280;31429;42.674;23.350;2024-02-23T04:56:21;94455.88;;;5.22;100.00
23164;BME280;31429;42.674;23.350;2024-02-23T04:57:23;94452.66;;;5.16;100.00
23164;BME280;31429;42.674;23.350;2024-02-23T04:58:24;94460.47;;;5.05;100.00
23164;BME280;31429;42.674;23.350;2024-02-23T04:59:25;94472.94;;;4.75;100.00
23164;BME280;31429;42.674;23.350;2024-02-23T05:00:25;94464.38;;;4.82;100.00
23164;BME280;31429;42.674;23.350;2024-02-23T05:01:35;94462.00;;;4.73;100.00
23164;BME280;31429;42.674;23.350;2024-02-23T05:02:36;94451.84;;;4.74;100.00
23164;BME280;31429;42.674;23.350;2024-02-23T05:03:37;94448.34;;;4.80;100.00
23164;BME280;31429;42.674;23.350;2024-02-23T05:04:38;94450.31;;;4.65;100.00
23164;BME280;31429;42.674;23.350;2024-02-23T05:05:39;94451.16;;;4.66;100.00
23164;BME280;31429;42.674;23.350;2024-02-23T05:06:40;94447.94;;;4.59;100.00
23164;BME280;31429;42.674;23.350;2024-02-23T05:07:40;94459.88;;;4.51;100.00
23164;BME280;31429;42.674;23.350;2024-02-23T05:08:41;94457.13;;;4.63;100.00
23164;BME280;31429;42.674;23.350;2024-02-23T05:09:42;94461.34;;;4.63;100.00
23164;BME280;31429;42.674;23.350;2024-02-23T05:10:43;94470.41;;;4.75;100.00
23164;BME280;31429;42.674;23.350;2024-02-23T05:11:44;94474.56;;;4.77;100.00
23164;BME280;31429;42.674;23.350;2024-02-23T05:12:47;94475.03;;;4.96;100.00
23164;BME280;31429;42.674;23.350;2024-02-23T05:13:48;94464.22;;;5.28;100.00
23164;BME280;31429;42.674;23.350;2024-02-23T05:14:49;94457.72;;;5.16;100.00
23164;BME280;31429;42.674;23.350;2024-02-23T05:15:50;94456.84;;;4.79;100.00
23164;BME280;31429;42.674;23.350;2024-02-23T05:16:50;94455.38;;;4.65;100.00
23164;BME280;31429;42.674;23.350;2024-02-23T05:17:52;94457.50;;;4.87;100.00
23164;BME280;31429;42.674;23.350;2024-02-23T05:18:53;94457.59;;;4.82;100.00
23164;BME280;31429;42.674;23.350;2024-02-23T05:19:53;94460.28;;;4.75;100.00
23164;BME280;31429;42.674;23.350;2024-02-23T05:20:54;94468.59;;;4.81;100.00